sensor_id;sensor_type;location;lat;lon;timestamp;temperature;humidity
47618;DHT22;33336;36.728;-4.414;2023-07-22T00:03:42;32.00;56.10
47618;DHT22;33336;36.728;-4.414;2023-07-22T00:08:46;32.00;56.10
47618;DHT22;33336;36.728;-4.414;2023-07-22T00:13:49;31.80;56.30
47618;DHT22;33336;36.728;-4.414;2023-07-22T00:18:55;31.80;56.50
47618;DHT22;33336;36.728;-4.414;2023-07-22T00:23:58;31.80;56.60
47618;DHT22;33336;36.728;-4.414;2023-07-22T00:29:00;31.80;56.90
47618;DHT22;33336;36.728;-4.414;2023-07-22T00:34:05;31.60;57.60
47618;DHT22;33336;36.728;-4.414;2023-07-22T00:39:08;31.70;57.50
47618;DHT22;33336;36.728;-4.414;2023-07-22T00:44:12;31.30;58.10
47618;DHT22;33336;36.728;-4.414;2023-07-22T00:49:17;31.50;58.50
47618;DHT22;33336;36.728;-4.414;2023-07-22T00:54:20;31.50;58.80
47618;DHT22;33336;36.728;-4.414;2023-07-22T00:59:24;31.40;59.00
47618;DHT22;33336;36.728;-4.414;2023-07-22T01:04:28;31.40;59.30
47618;DHT22;33336;36.728;-4.414;2023-07-22T01:09:34;31.30;59.50
47618;DHT22;33336;36.728;-4.414;2023-07-22T01:14:39;31.60;59.60
47618;DHT22;33336;36.728;-4.414;2023-07-22T01:19:44;31.30;60.00
47618;DHT22;33336;36.728;-4.414;2023-07-22T01:24:48;31.20;60.60
47618;DHT22;33336;36.728;-4.414;2023-07-22T01:29:51;31.40;61.20
47618;DHT22;33336;36.728;-4.414;2023-07-22T01:34:54;31.00;62.00
47618;DHT22;33336;36.728;-4.414;2023-07-22T01:39:59;31.10;62.50
47618;DHT22;33336;36.728;-4.414;2023-07-22T01:45:02;30.90;63.00
47618;DHT22;33336;36.728;-4.414;2023-07-22T01:50:08;30.70;63.70
47618;DHT22;33336;36.728;-4.414;2023-07-22T01:55:12;30.60;64.30
47618;DHT22;33336;36.728;-4.414;2023-07-22T02:00:16;30.80;64.70
47618;DHT22;33336;36.728;-4.414;2023-07-22T02:05:18;30.70;64.90
47618;DHT22;33336;36.728;-4.414;2023-07-22T02:10:24;30.70;65.10
47618;DHT22;33336;36.728;-4.414;2023-07-22T02:15:28;30.80;64.90
47618;DHT22;33336;36.728;-4.414;2023-07-22T02:20:45;30.80;65.00
47618;DHT22;33336;36.728;-4.414;2023-07-22T02:25:50;30.40;65.60
47618;DHT22;33336;36.728;-4.414;2023-07-22T02:30:54;30.50;65.30
47618;DHT22;33336;36.728;-4.414;2023-07-22T02:35:57;30.70;65.20
47618;DHT22;33336;36.728;-4.414;2023-07-22T02:41:05;30.70;65.70
47618;DHT22;33336;36.728;-4.414;2023-07-22T02:46:09;30.50;66.20
47618;DHT22;33336;36.728;-4.414;2023-07-22T02:51:12;30.60;66.60
47618;DHT22;33336;36.728;-4.414;2023-07-22T02:56:16;30.40;67.00
47618;DHT22;33336;36.728;-4.414;2023-07-22T03:01:20;30.40;67.30
47618;DHT22;33336;36.728;-4.414;2023-07-22T03:06:24;30.30;67.50
47618;DHT22;33336;36.728;-4.414;2023-07-22T03:11:29;30.40;67.60
47618;DHT22;33336;36.728;-4.414;2023-07-22T03:16:31;30.00;68.20
47618;DHT22;33336;36.728;-4.414;2023-07-22T03:21:34;30.00;68.20
47618;DHT22;33336;36.728;-4.414;2023-07-22T03:26:38;29.90;68.50
47618;DHT22;33336;36.728;-4.414;2023-07-22T03:31:41;29.80;68.50
47618;DHT22;33336;36.728;-4.414;2023-07-22T03:36:44;29.80;68.50
47618;DHT22;33336;36.728;-4.414;2023-07-22T03:41:50;29.90;68.80
47618;DHT22;33336;36.728;-4.414;2023-07-22T03:46:53;30.10;68.50
47618;DHT22;33336;36.728;-4.414;2023-07-22T03:51:56;29.80;68.80
47618;DHT22;33336;36.728;-4.414;2023-07-22T03:57:00;29.80;68.90
47618;DHT22;33336;36.728;-4.414;2023-07-22T04:02:04;29.80;69.10
47618;DHT22;33336;36.728;-4.414;2023-07-22T04:07:07;29.50;69.50
47618;DHT22;33336;36.728;-4.414;2023-07-22T04:12:13;29.80;69.30
47618;DHT22;33336;36.728;-4.414;2023-07-22T04:17:16;29.70;69.50
47618;DHT22;33336;36.728;-4.414;2023-07-22T04:22:20;29.60;69.50
47618;DHT22;33336;36.728;-4.414;2023-07-22T04:27:26;30.00;69.10
47618;DHT22;33336;36.728;-4.414;2023-07-22T04:32:29;29.80;69.50
47618;DHT22;33336;36.728;-4.414;2023-07-22T04:37:32;29.70;69.60
47618;DHT22;33336;36.728;-4.414;2023-07-22T04:42:37;29.40;70.10
47618;DHT22;33336;36.728;-4.414;2023-07-22T04:47:40;29.40;69.80
47618;DHT22;33336;36.728;-4.414;2023-07-22T04:52:47;29.60;69.80
47618;DHT22;33336;36.728;-4.414;2023-07-22T04:57:51;29.40;70.10
47618;DHT22;33336;36.728;-4.414;2023-07-22T05:02:54;29.40;70.10
47618;DHT22;33336;36.728;-4.414;2023-07-22T05:07:57;29.50;70.60
47618;DHT22;33336;36.728;-4.414;2023-07-22T05:13:03;29.60;69.80
47618;DHT22;33336;36.728;-4.414;2023-07-22T05:18:06;29.50;70.10
47618;DHT22;33336;36.728;-4.414;2023-07-22T05:23:09;29.50;70.10
47618;DHT22;33336;36.728;-4.414;2023-07-22T05:28:13;29.60;69.80
47618;DHT22;33336;36.728;-4.414;2023-07-22T05:33:17;29.40;69.90
47618;DHT22;33336;36.728;-4.414;2023-07-22T05:38:20;29.50;70.30
47618;DHT22;33336;36.728;-4.414;2023-07-22T05:43:25;29.60;70.10
47618;DHT22;33336;36.728;-4.414;2023-07-22T05:48:28;29.70;70.00
47618;DHT22;33336;36.728;-4.414;2023-07-22T05:53:32;29.50;70.30
47618;DHT22;33336;36.728;-4.414;2023-07-22T05:58:36;28.80;71.30
47618;DHT22;33336;36.728;-4.414;2023-07-22T06:03:39;29.10;71.10
47618;DHT22;33336;36.728;-4.414;2023-07-22T06:08:42;28.70;71.60
47618;DHT22;33336;36.728;-4.414;2023-07-22T06:13:48;29.10;71.40
47618;DHT22;33336;36.728;-4.414;2023-07-22T06:18:50;29.20;71.30
47618;DHT22;33336;36.728;-4.414;2023-07-22T06:23:54;29.30;71.10
47618;DHT22;33336;36.728;-4.414;2023-07-22T06:28:58;29.30;71.30
47618;DHT22;33336;36.728;-4.414;2023-07-22T06:34:02;29.10;71.70
47618;DHT22;33336;36.728;-4.414;2023-07-22T06:39:05;29.10;72.30
47618;DHT22;33336;36.728;-4.414;2023-07-22T06:44:10;28.90;72.00
47618;DHT22;33336;36.728;-4.414;2023-07-22T06:49:12;28.90;72.10
47618;DHT22;33336;36.728;-4.414;2023-07-22T06:54:16;28.70;72.40
47618;DHT22;33336;36.728;-4.414;2023-07-22T06:59:20;29.20;72.10
47618;DHT22;33336;36.728;-4.414;2023-07-22T07:04:24;29.40;71.80
47618;DHT22;33336;36.728;-4.414;2023-07-22T07:09:27;29.30;71.90
47618;DHT22;33336;36.728;-4.414;2023-07-22T07:14:32;29.40;71.80
47618;DHT22;33336;36.728;-4.414;2023-07-22T07:19:35;29.40;72.10
47618;DHT22;33336;36.728;-4.414;2023-07-22T07:24:38;29.30;72.20
47618;DHT22;33336;36.728;-4.414;2023-07-22T07:29:42;29.60;72.10
47618;DHT22;33336;36.728;-4.414;2023-07-22T07:34:46;29.30;72.00
47618;DHT22;33336;36.728;-4.414;2023-07-22T07:39:49;29.40;72.10
47618;DHT22;33336;36.728;-4.414;2023-07-22T07:44:54;29.40;72.10
47618;DHT22;33336;36.728;-4.414;2023-07-22T07:49:56;29.50;72.10
47618;DHT22;33336;36.728;-4.414;2023-07-22T07:55:00;29.40;72.30
47618;DHT22;33336;36.728;-4.414;2023-07-22T08:00:06;29.60;72.10
47618;DHT22;33336;36.728;-4.414;2023-07-22T08:05:10;29.80;72.20
47618;DHT22;33336;36.728;-4.414;2023-07-22T08:10:13;29.30;74.30
47618;DHT22;33336;36.728;-4.414;2023-07-22T08:15:19;29.70;72.90
47618;DHT22;33336;36.728;-4.414;2023-07-22T08:20:22;30.30;78.80
47618;DHT22;33336;36.728;-4.414;2023-07-22T08:25:25;31.00;81.30
47618;DHT22;33336;36.728;-4.414;2023-07-22T08:30:30;31.40;82.00
47618;DHT22;33336;36.728;-4.414;2023-07-22T08:35:34;31.80;81.50
47618;DHT22;33336;36.728;-4.414;2023-07-22T08:40:39;31.80;80.40
47618;DHT22;33336;36.728;-4.414;2023-07-22T08:45:45;32.10;79.10
47618;DHT22;33336;36.728;-4.414;2023-07-22T08:50:53;31.90;76.70
47618;DHT22;33336;36.728;-4.414;2023-07-22T08:55:56;31.80;76.80
47618;DHT22;33336;36.728;-4.414;2023-07-22T09:01:00;31.30;77.20
47618;DHT22;33336;36.728;-4.414;2023-07-22T09:06:05;31.40;82.50
47618;DHT22;33336;36.728;-4.414;2023-07-22T09:11:07;32.20;82.50
47618;DHT22;33336;36.728;-4.414;2023-07-22T09:16:13;32.20;81.40
47618;DHT22;33336;36.728;-4.414;2023-07-22T09:21:18;32.20;83.10
47618;DHT22;33336;36.728;-4.414;2023-07-22T09:26:21;32.30;82.40
47618;DHT22;33336;36.728;-4.414;2023-07-22T09:31:26;32.20;86.40
47618;DHT22;33336;36.728;-4.414;2023-07-22T09:36:30;31.70;85.10
47618;DHT22;33336;36.728;-4.414;2023-07-22T09:41:33;31.10;86.40
47618;DHT22;33336;36.728;-4.414;2023-07-22T09:46:49;30.70;86.40
47618;DHT22;33336;36.728;-4.414;2023-07-22T09:51:52;30.80;87.60
47618;DHT22;33336;36.728;-4.414;2023-07-22T09:56:56;30.90;86.60
47618;DHT22;33336;36.728;-4.414;2023-07-22T10:02:01;30.70;87.70
47618;DHT22;33336;36.728;-4.414;2023-07-22T10:07:06;29.70;87.80
47618;DHT22;33336;36.728;-4.414;2023-07-22T10:12:10;29.90;88.40
47618;DHT22;33336;36.728;-4.414;2023-07-22T10:17:18;30.30;85.60
47618;DHT22;33336;36.728;-4.414;2023-07-22T10:22:22;29.90;87.20
47618;DHT22;33336;36.728;-4.414;2023-07-22T10:27:26;29.90;89.80
47618;DHT22;33336;36.728;-4.414;2023-07-22T10:32:34;30.40;89.30
47618;DHT22;33336;36.728;-4.414;2023-07-22T10:37:39;31.10;87.20
47618;DHT22;33336;36.728;-4.414;2023-07-22T10:42:50;31.70;87.60
47618;DHT22;33336;36.728;-4.414;2023-07-22T10:48:06;31.20;89.60
47618;DHT22;33336;36.728;-4.414;2023-07-22T10:53:10;30.70;90.70
47618;DHT22;33336;36.728;-4.414;2023-07-22T10:58:15;30.00;92.30
47618;DHT22;33336;36.728;-4.414;2023-07-22T11:03:22;30.10;93.10
47618;DHT22;33336;36.728;-4.414;2023-07-22T11:08:36;30.50;92.90
47618;DHT22;33336;36.728;-4.414;2023-07-22T11:13:39;30.40;93.10
47618;DHT22;33336;36.728;-4.414;2023-07-22T11:18:45;31.00;93.40
47618;DHT22;33336;36.728;-4.414;2023-07-22T11:23:47;30.90;94.00
47618;DHT22;33336;36.728;-4.414;2023-07-22T11:28:50;31.50;93.50
47618;DHT22;33336;36.728;-4.414;2023-07-22T11:33:55;31.30;93.90
47618;DHT22;33336;36.728;-4.414;2023-07-22T11:39:03;31.40;93.70
47618;DHT22;33336;36.728;-4.414;2023-07-22T11:44:06;31.10;95.20
47618;DHT22;33336;36.728;-4.414;2023-07-22T11:49:12;31.50;94.90
47618;DHT22;33336;36.728;-4.414;2023-07-22T11:54:14;31.60;95.10
47618;DHT22;33336;36.728;-4.414;2023-07-22T11:59:33;31.10;96.00
47618;DHT22;33336;36.728;-4.414;2023-07-22T12:04:38;31.10;96.30
47618;DHT22;33336;36.728;-4.414;2023-07-22T12:09:48;31.20;96.60
47618;DHT22;33336;36.728;-4.414;2023-07-22T12:14:50;32.00;96.20
47618;DHT22;33336;36.728;-4.414;2023-07-22T12:19:56;31.40;96.30
47618;DHT22;33336;36.728;-4.414;2023-07-22T12:24:58;31.40;96.90
47618;DHT22;33336;36.728;-4.414;2023-07-22T12:30:01;32.30;96.50
47618;DHT22;33336;36.728;-4.414;2023-07-22T12:35:07;32.60;96.20
47618;DHT22;33336;36.728;-4.414;2023-07-22T12:40:12;32.20;96.50
47618;DHT22;33336;36.728;-4.414;2023-07-22T12:45:18;32.00;97.50
47618;DHT22;33336;36.728;-4.414;2023-07-22T12:50:23;32.40;97.00
47618;DHT22;33336;36.728;-4.414;2023-07-22T12:55:25;32.30;96.20
47618;DHT22;33336;36.728;-4.414;2023-07-22T13:00:29;32.40;96.40
47618;DHT22;33336;36.728;-4.414;2023-07-22T13:05:33;31.70;98.20
47618;DHT22;33336;36.728;-4.414;2023-07-22T13:10:37;32.00;98.60
47618;DHT22;33336;36.728;-4.414;2023-07-22T13:15:40;32.80;97.70
47618;DHT22;33336;36.728;-4.414;2023-07-22T13:20:51;33.50;97.10
47618;DHT22;33336;36.728;-4.414;2023-07-22T13:25:54;34.10;96.50
47618;DHT22;33336;36.728;-4.414;2023-07-22T13:30:57;32.80;97.80
47618;DHT22;33336;36.728;-4.414;2023-07-22T13:36:01;33.80;96.60
47618;DHT22;33336;36.728;-4.414;2023-07-22T13:41:04;34.00;96.60
47618;DHT22;33336;36.728;-4.414;2023-07-22T13:46:07;33.60;97.00
47618;DHT22;33336;36.728;-4.414;2023-07-22T13:51:12;33.00;97.50
47618;DHT22;33336;36.728;-4.414;2023-07-22T13:56:14;33.50;97.00
47618;DHT22;33336;36.728;-4.414;2023-07-22T14:01:18;33.20;96.70
47618;DHT22;33336;36.728;-4.414;2023-07-22T14:06:22;34.40;96.20
47618;DHT22;33336;36.728;-4.414;2023-07-22T14:11:25;35.10;95.30
47618;DHT22;33336;36.728;-4.414;2023-07-22T14:16:28;34.70;94.90
47618;DHT22;33336;36.728;-4.414;2023-07-22T14:21:32;34.60;95.30
47618;DHT22;33336;36.728;-4.414;2023-07-22T14:26:35;34.00;96.20
47618;DHT22;33336;36.728;-4.414;2023-07-22T14:31:41;33.40;97.20
47618;DHT22;33336;36.728;-4.414;2023-07-22T14:36:47;34.00;96.90
47618;DHT22;33336;36.728;-4.414;2023-07-22T14:41:51;32.80;98.40
47618;DHT22;33336;36.728;-4.414;2023-07-22T14:46:54;32.60;98.70
47618;DHT22;33336;36.728;-4.414;2023-07-22T14:51:58;32.90;98.40
47618;DHT22;33336;36.728;-4.414;2023-07-22T14:57:02;33.00;98.30
47618;DHT22;33336;36.728;-4.414;2023-07-22T15:02:06;34.00;97.70
47618;DHT22;33336;36.728;-4.414;2023-07-22T15:12:52;33.90;97.60
47618;DHT22;33336;36.728;-4.414;2023-07-22T15:17:58;32.80;98.80
47618;DHT22;33336;36.728;-4.414;2023-07-22T15:23:01;32.30;99.40
47618;DHT22;33336;36.728;-4.414;2023-07-22T15:28:07;33.30;98.70
47618;DHT22;33336;36.728;-4.414;2023-07-22T15:33:09;33.70;98.30
47618;DHT22;33336;36.728;-4.414;2023-07-22T15:38:13;33.60;98.40
47618;DHT22;33336;36.728;-4.414;2023-07-22T15:43:18;33.60;98.10
47618;DHT22;33336;36.728;-4.414;2023-07-22T15:48:21;32.40;99.50
47618;DHT22;33336;36.728;-4.414;2023-07-22T15:53:24;34.00;98.60
47618;DHT22;33336;36.728;-4.414;2023-07-22T15:58:28;33.20;99.10
47618;DHT22;33336;36.728;-4.414;2023-07-22T16:03:33;35.30;97.30
47618;DHT22;33336;36.728;-4.414;2023-07-22T16:08:38;34.90;97.00
47618;DHT22;33336;36.728;-4.414;2023-07-22T16:13:43;33.60;98.00
47618;DHT22;33336;36.728;-4.414;2023-07-22T16:18:47;33.30;98.70
47618;DHT22;33336;36.728;-4.414;2023-07-22T16:23:50;34.00;98.80
47618;DHT22;33336;36.728;-4.414;2023-07-22T16:28:55;35.70;96.70
47618;DHT22;33336;36.728;-4.414;2023-07-22T16:33:57;35.30;95.50
47618;DHT22;33336;36.728;-4.414;2023-07-22T16:39:06;35.30;95.30
47618;DHT22;33336;36.728;-4.414;2023-07-22T16:44:10;35.50;95.10
47618;DHT22;33336;36.728;-4.414;2023-07-22T16:49:14;36.10;94.60
47618;DHT22;33336;36.728;-4.414;2023-07-22T16:54:17;34.70;94.70
47618;DHT22;33336;36.728;-4.414;2023-07-22T16:59:21;35.50;95.40
47618;DHT22;33336;36.728;-4.414;2023-07-22T17:04:24;33.70;96.20
47618;DHT22;33336;36.728;-4.414;2023-07-22T17:09:27;33.60;97.40
47618;DHT22;33336;36.728;-4.414;2023-07-22T17:14:31;34.70;96.40
47618;DHT22;33336;36.728;-4.414;2023-07-22T17:19:35;33.60;96.30
47618;DHT22;33336;36.728;-4.414;2023-07-22T17:24:38;35.10;95.90
47618;DHT22;33336;36.728;-4.414;2023-07-22T17:29:43;34.70;95.60
47618;DHT22;33336;36.728;-4.414;2023-07-22T17:34:45;34.40;96.10
47618;DHT22;33336;36.728;-4.414;2023-07-22T17:39:49;34.80;95.90
47618;DHT22;33336;36.728;-4.414;2023-07-22T17:44:56;34.70;95.80
47618;DHT22;33336;36.728;-4.414;2023-07-22T17:49:59;34.50;95.00
47618;DHT22;33336;36.728;-4.414;2023-07-22T17:55:02;33.80;95.60
47618;DHT22;33336;36.728;-4.414;2023-07-22T18:00:08;34.00;94.70
47618;DHT22;33336;36.728;-4.414;2023-07-22T18:05:11;34.50;94.30
47618;DHT22;33336;36.728;-4.414;2023-07-22T18:10:14;35.70;93.10
47618;DHT22;33336;36.728;-4.414;2023-07-22T18:15:18;37.00;92.70
47618;DHT22;33336;36.728;-4.414;2023-07-22T18:20:22;36.10;91.50
47618;DHT22;33336;36.728;-4.414;2023-07-22T18:25:25;36.00;92.20
47618;DHT22;33336;36.728;-4.414;2023-07-22T18:30:29;36.00;92.10
47618;DHT22;33336;36.728;-4.414;2023-07-22T18:35:32;35.00;92.60
47618;DHT22;33336;36.728;-4.414;2023-07-22T18:40:35;34.70;93.60
47618;DHT22;33336;36.728;-4.414;2023-07-22T18:45:39;34.10;93.20
47618;DHT22;33336;36.728;-4.414;2023-07-22T18:50:44;33.60;93.80
47618;DHT22;33336;36.728;-4.414;2023-07-22T18:55:47;33.80;94.40
47618;DHT22;33336;36.728;-4.414;2023-07-22T19:00:51;32.40;94.80
47618;DHT22;33336;36.728;-4.414;2023-07-22T19:05:54;31.30;97.40
47618;DHT22;33336;36.728;-4.414;2023-07-22T19:10:58;31.80;97.30
47618;DHT22;33336;36.728;-4.414;2023-07-22T19:16:02;31.30;98.00
47618;DHT22;33336;36.728;-4.414;2023-07-22T19:21:06;32.10;96.70
47618;DHT22;33336;36.728;-4.414;2023-07-22T19:26:10;31.50;97.40
47618;DHT22;33336;36.728;-4.414;2023-07-22T19:31:14;31.50;97.80
47618;DHT22;33336;36.728;-4.414;2023-07-22T19:36:17;30.90;98.60
47618;DHT22;33336;36.728;-4.414;2023-07-22T19:41:21;31.10;98.70
47618;DHT22;33336;36.728;-4.414;2023-07-22T19:46:25;31.50;98.40
47618;DHT22;33336;36.728;-4.414;2023-07-22T19:51:29;31.30;98.80
47618;DHT22;33336;36.728;-4.414;2023-07-22T19:56:32;31.20;98.70
47618;DHT22;33336;36.728;-4.414;2023-07-22T20:01:37;30.80;99.60
47618;DHT22;33336;36.728;-4.414;2023-07-22T20:06:41;30.50;99.90
47618;DHT22;33336;36.728;-4.414;2023-07-22T20:11:44;30.70;99.90
47618;DHT22;33336;36.728;-4.414;2023-07-22T20:16:48;30.20;99.90
47618;DHT22;33336;36.728;-4.414;2023-07-22T20:21:51;29.80;99.90
47618;DHT22;33336;36.728;-4.414;2023-07-22T20:26:54;29.70;99.90
47618;DHT22;33336;36.728;-4.414;2023-07-22T20:31:59;29.70;99.90
47618;DHT22;33336;36.728;-4.414;2023-07-22T20:37:02;29.60;99.90
47618;DHT22;33336;36.728;-4.414;2023-07-22T20:42:06;29.40;99.90
47618;DHT22;33336;36.728;-4.414;2023-07-22T20:47:10;29.90;99.90
47618;DHT22;33336;36.728;-4.414;2023-07-22T20:52:13;30.40;99.90
47618;DHT22;33336;36.728;-4.414;2023-07-22T20:57:16;30.90;99.90
47618;DHT22;33336;36.728;-4.414;2023-07-22T21:02:21;30.80;99.90
47618;DHT22;33336;36.728;-4.414;2023-07-22T21:07:24;30.80;99.90
47618;DHT22;33336;36.728;-4.414;2023-07-22T21:12:28;30.70;99.90
47618;DHT22;33336;36.728;-4.414;2023-07-22T21:17:32;30.20;99.90
47618;DHT22;33336;36.728;-4.414;2023-07-22T21:22:36;29.90;99.90
47618;DHT22;33336;36.728;-4.414;2023-07-22T21:27:41;30.50;99.90
47618;DHT22;33336;36.728;-4.414;2023-07-22T21:32:46;30.50;99.90
47618;DHT22;33336;36.728;-4.414;2023-07-22T21:37:49;30.10;99.90
47618;DHT22;33336;36.728;-4.414;2023-07-22T21:42:53;29.30;99.90
47618;DHT22;33336;36.728;-4.414;2023-07-22T21:47:57;29.60;99.90
47618;DHT22;33336;36.728;-4.414;2023-07-22T21:53:00;29.50;99.90
47618;DHT22;33336;36.728;-4.414;2023-07-22T21:58:03;29.70;99.90
47618;DHT22;33336;36.728;-4.414;2023-07-22T22:03:10;29.40;99.90
47618;DHT22;33336;36.728;-4.414;2023-07-22T22:08:13;29.40;99.90
47618;DHT22;33336;36.728;-4.414;2023-07-22T22:13:17;29.30;99.90
47618;DHT22;33336;36.728;-4.414;2023-07-22T22:18:21;29.80;99.90
47618;DHT22;33336;36.728;-4.414;2023-07-22T22:23:24;29.70;99.90
47618;DHT22;33336;36.728;-4.414;2023-07-22T22:28:27;29.50;99.90
47618;DHT22;33336;36.728;-4.414;2023-07-22T22:33:31;29.50;99.90
47618;DHT22;33336;36.728;-4.414;2023-07-22T22:38:34;29.00;99.90
47618;DHT22;33336;36.728;-4.414;2023-07-22T22:43:37;29.10;99.90
47618;DHT22;33336;36.728;-4.414;2023-07-22T22:48:41;29.30;99.90
47618;DHT22;33336;36.728;-4.414;2023-07-22T22:53:44;29.30;99.90
47618;DHT22;33336;36.728;-4.414;2023-07-22T22:58:47;29.60;99.90
47618;DHT22;33336;36.728;-4.414;2023-07-22T23:03:51;29.30;99.90
47618;DHT22;33336;36.728;-4.414;2023-07-22T23:08:54;29.20;99.90
47618;DHT22;33336;36.728;-4.414;2023-07-22T23:13:58;29.20;99.90
47618;DHT22;33336;36.728;-4.414;2023-07-22T23:19:04;28.80;99.90
47618;DHT22;33336;36.728;-4.414;2023-07-22T23:24:08;29.00;99.90
47618;DHT22;33336;36.728;-4.414;2023-07-22T23:29:11;28.80;99.90
47618;DHT22;33336;36.728;-4.414;2023-07-22T23:34:15;28.80;99.90
47618;DHT22;33336;36.728;-4.414;2023-07-22T23:39:18;28.90;99.90
47618;DHT22;33336;36.728;-4.414;2023-07-22T23:44:21;28.90;99.90
47618;DHT22;33336;36.728;-4.414;2023-07-22T23:49:25;28.90;99.90
47618;DHT22;33336;36.728;-4.414;2023-07-22T23:54:28;28.70;99.90
47618;DHT22;33336;36.728;-4.414;2023-07-22T23:59:31;28.90;99.90
